sensor_id;sensor_type;location;lat;lon;timestamp;temperature;humidity
7844;DHT22;3967;48.702;9.326;2023-04-30T00:00:13;13.10;97.80
7844;DHT22;3967;48.702;9.326;2023-04-30T00:02:40;13.10;97.70
7844;DHT22;3967;48.702;9.326;2023-04-30T00:05:07;13.20;97.40
7844;DHT22;3967;48.702;9.326;2023-04-30T00:07:34;13.20;97.10
7844;DHT22;3967;48.702;9.326;2023-04-30T00:10:01;13.20;96.90
7844;DHT22;3967;48.702;9.326;2023-04-30T00:12:28;13.30;97.20
7844;DHT22;3967;48.702;9.326;2023-04-30T00:14:55;13.40;96.90
7844;DHT22;3967;48.702;9.326;2023-04-30T00:17:22;13.30;96.80
7844;DHT22;3967;48.702;9.326;2023-04-30T00:19:49;13.20;96.60
7844;DHT22;3967;48.702;9.326;2023-04-30T00:22:16;13.10;97.20
7844;DHT22;3967;48.702;9.326;2023-04-30T00:24:43;13.20;97.30
7844;DHT22;3967;48.702;9.326;2023-04-30T00:27:09;13.20;96.60
7844;DHT22;3967;48.702;9.326;2023-04-30T00:29:36;13.20;96.80
7844;DHT22;3967;48.702;9.326;2023-04-30T00:32:03;13.30;96.90
7844;DHT22;3967;48.702;9.326;2023-04-30T00:34:30;13.20;96.60
7844;DHT22;3967;48.702;9.326;2023-04-30T00:36:57;13.30;96.70
7844;DHT22;3967;48.702;9.326;2023-04-30T00:39:24;13.30;96.70
7844;DHT22;3967;48.702;9.326;2023-04-30T00:41:50;13.30;96.70
7844;DHT22;3967;48.702;9.326;2023-04-30T00:44:17;13.30;97.20
7844;DHT22;3967;48.702;9.326;2023-04-30T00:46:44;13.20;97.30
7844;DHT22;3967;48.702;9.326;2023-04-30T00:49:10;13.20;97.40
7844;DHT22;3967;48.702;9.326;2023-04-30T00:51:39;12.90;97.50
7844;DHT22;3967;48.702;9.326;2023-04-30T00:54:07;12.80;97.60
7844;DHT22;3967;48.702;9.326;2023-04-30T00:56:34;12.80;98.20
7844;DHT22;3967;48.702;9.326;2023-04-30T00:59:01;12.80;98.30
7844;DHT22;3967;48.702;9.326;2023-04-30T01:01:28;12.70;98.20
7844;DHT22;3967;48.702;9.326;2023-04-30T01:03:55;12.80;98.70
7844;DHT22;3967;48.702;9.326;2023-04-30T01:06:22;12.50;98.50
7844;DHT22;3967;48.702;9.326;2023-04-30T01:08:49;12.60;99.00
7844;DHT22;3967;48.702;9.326;2023-04-30T01:14:07;12.60;99.20
7844;DHT22;3967;48.702;9.326;2023-04-30T01:16:46;12.60;99.20
7844;DHT22;3967;48.702;9.326;2023-04-30T01:21:58;12.50;98.60
7844;DHT22;3967;48.702;9.326;2023-04-30T01:27:14;12.50;98.60
7844;DHT22;3967;48.702;9.326;2023-04-30T01:29:47;12.50;98.50
7844;DHT22;3967;48.702;9.326;2023-04-30T01:32:14;12.60;98.40
7844;DHT22;3967;48.702;9.326;2023-04-30T01:34:41;12.40;98.70
7844;DHT22;3967;48.702;9.326;2023-04-30T01:43:04;12.30;98.40
7844;DHT22;3967;48.702;9.326;2023-04-30T01:45:54;12.40;98.70
7844;DHT22;3967;48.702;9.326;2023-04-30T01:51:04;12.40;98.30
7844;DHT22;3967;48.702;9.326;2023-04-30T01:53:40;12.70;98.40
7844;DHT22;3967;48.702;9.326;2023-04-30T01:56:35;12.70;97.80
7844;DHT22;3967;48.702;9.326;2023-04-30T01:59:04;12.80;98.00
7844;DHT22;3967;48.702;9.326;2023-04-30T02:01:32;12.80;98.10
7844;DHT22;3967;48.702;9.326;2023-04-30T02:03:59;12.80;98.10
7844;DHT22;3967;48.702;9.326;2023-04-30T02:06:26;12.80;98.40
7844;DHT22;3967;48.702;9.326;2023-04-30T02:08:56;12.80;98.30
7844;DHT22;3967;48.702;9.326;2023-04-30T02:11:28;12.80;98.70
7844;DHT22;3967;48.702;9.326;2023-04-30T02:13:55;12.80;98.50
7844;DHT22;3967;48.702;9.326;2023-04-30T02:16:22;12.80;98.40
7844;DHT22;3967;48.702;9.326;2023-04-30T02:18:50;12.80;98.60
7844;DHT22;3967;48.702;9.326;2023-04-30T02:21:16;12.60;98.20
7844;DHT22;3967;48.702;9.326;2023-04-30T02:23:43;12.50;98.60
7844;DHT22;3967;48.702;9.326;2023-04-30T02:26:10;12.30;98.60
7844;DHT22;3967;48.702;9.326;2023-04-30T02:28:37;12.40;98.80
7844;DHT22;3967;48.702;9.326;2023-04-30T02:31:04;12.10;98.80
7844;DHT22;3967;48.702;9.326;2023-04-30T02:33:30;12.10;98.70
7844;DHT22;3967;48.702;9.326;2023-04-30T02:35:59;12.20;98.80
7844;DHT22;3967;48.702;9.326;2023-04-30T02:38:26;12.10;98.50
7844;DHT22;3967;48.702;9.326;2023-04-30T02:40:53;12.10;98.80
7844;DHT22;3967;48.702;9.326;2023-04-30T02:43:19;12.10;99.00
7844;DHT22;3967;48.702;9.326;2023-04-30T02:45:46;12.10;98.70
7844;DHT22;3967;48.702;9.326;2023-04-30T02:48:13;12.20;98.50
7844;DHT22;3967;48.702;9.326;2023-04-30T02:50:40;12.40;98.30
7844;DHT22;3967;48.702;9.326;2023-04-30T02:53:06;12.40;98.30
7844;DHT22;3967;48.702;9.326;2023-04-30T02:55:33;12.30;98.00
7844;DHT22;3967;48.702;9.326;2023-04-30T02:58:00;12.20;98.00
7844;DHT22;3967;48.702;9.326;2023-04-30T03:00:26;12.20;98.10
7844;DHT22;3967;48.702;9.326;2023-04-30T03:02:53;12.10;98.50
7844;DHT22;3967;48.702;9.326;2023-04-30T03:05:20;12.10;98.60
7844;DHT22;3967;48.702;9.326;2023-04-30T03:07:47;12.00;99.00
7844;DHT22;3967;48.702;9.326;2023-04-30T03:10:13;12.00;98.90
7844;DHT22;3967;48.702;9.326;2023-04-30T03:12:40;12.00;99.10
7844;DHT22;3967;48.702;9.326;2023-04-30T03:15:07;12.10;98.90
7844;DHT22;3967;48.702;9.326;2023-04-30T03:17:34;12.00;98.90
7844;DHT22;3967;48.702;9.326;2023-04-30T03:20:01;12.10;98.90
7844;DHT22;3967;48.702;9.326;2023-04-30T03:22:29;12.00;98.80
7844;DHT22;3967;48.702;9.326;2023-04-30T03:24:56;12.10;99.10
7844;DHT22;3967;48.702;9.326;2023-04-30T03:27:22;12.10;98.80
7844;DHT22;3967;48.702;9.326;2023-04-30T03:29:49;12.10;98.70
7844;DHT22;3967;48.702;9.326;2023-04-30T03:32:16;12.00;99.00
7844;DHT22;3967;48.702;9.326;2023-04-30T03:34:42;12.00;99.10
7844;DHT22;3967;48.702;9.326;2023-04-30T03:37:09;11.70;99.60
7844;DHT22;3967;48.702;9.326;2023-04-30T03:39:36;11.70;99.90
7844;DHT22;3967;48.702;9.326;2023-04-30T03:42:02;11.70;99.90
7844;DHT22;3967;48.702;9.326;2023-04-30T03:44:29;11.40;99.90
7844;DHT22;3967;48.702;9.326;2023-04-30T03:46:56;11.40;99.90
7844;DHT22;3967;48.702;9.326;2023-04-30T03:49:23;11.20;99.90
7844;DHT22;3967;48.702;9.326;2023-04-30T03:51:49;11.20;99.90
7844;DHT22;3967;48.702;9.326;2023-04-30T03:54:16;11.30;99.90
7844;DHT22;3967;48.702;9.326;2023-04-30T03:56:43;11.30;99.90
7844;DHT22;3967;48.702;9.326;2023-04-30T03:59:10;11.40;99.90
7844;DHT22;3967;48.702;9.326;2023-04-30T04:01:36;11.20;99.90
7844;DHT22;3967;48.702;9.326;2023-04-30T04:04:03;11.30;99.90
7844;DHT22;3967;48.702;9.326;2023-04-30T04:06:30;11.20;99.90
7844;DHT22;3967;48.702;9.326;2023-04-30T04:08:57;11.30;99.90
7844;DHT22;3967;48.702;9.326;2023-04-30T04:11:24;11.20;99.90
7844;DHT22;3967;48.702;9.326;2023-04-30T04:13:51;11.20;99.90
7844;DHT22;3967;48.702;9.326;2023-04-30T04:16:17;11.30;99.90
7844;DHT22;3967;48.702;9.326;2023-04-30T04:18:44;11.20;99.90
7844;DHT22;3967;48.702;9.326;2023-04-30T04:21:11;11.20;99.90
7844;DHT22;3967;48.702;9.326;2023-04-30T04:23:38;11.10;99.90
7844;DHT22;3967;48.702;9.326;2023-04-30T04:26:05;11.10;99.90
7844;DHT22;3967;48.702;9.326;2023-04-30T04:28:32;11.20;99.90
7844;DHT22;3967;48.702;9.326;2023-04-30T04:30:59;11.00;99.90
7844;DHT22;3967;48.702;9.326;2023-04-30T04:33:25;10.90;99.90
7844;DHT22;3967;48.702;9.326;2023-04-30T04:35:53;11.00;99.90
7844;DHT22;3967;48.702;9.326;2023-04-30T04:38:20;11.00;99.90
7844;DHT22;3967;48.702;9.326;2023-04-30T04:40:51;11.00;99.90
7844;DHT22;3967;48.702;9.326;2023-04-30T04:43:18;11.10;99.90
7844;DHT22;3967;48.702;9.326;2023-04-30T04:45:45;11.20;99.90
7844;DHT22;3967;48.702;9.326;2023-04-30T04:48:14;11.30;99.90
7844;DHT22;3967;48.702;9.326;2023-04-30T04:50:40;11.40;99.90
7844;DHT22;3967;48.702;9.326;2023-04-30T04:53:07;11.50;99.90
7844;DHT22;3967;48.702;9.326;2023-04-30T04:55:34;11.50;99.90
7844;DHT22;3967;48.702;9.326;2023-04-30T04:58:01;11.50;99.90
7844;DHT22;3967;48.702;9.326;2023-04-30T05:00:30;11.60;99.90
7844;DHT22;3967;48.702;9.326;2023-04-30T05:02:57;11.40;99.90
7844;DHT22;3967;48.702;9.326;2023-04-30T05:05:24;11.50;99.90
7844;DHT22;3967;48.702;9.326;2023-04-30T05:07:50;11.60;99.90
7844;DHT22;3967;48.702;9.326;2023-04-30T05:10:20;11.70;99.80
7844;DHT22;3967;48.702;9.326;2023-04-30T05:12:47;11.60;99.90
7844;DHT22;3967;48.702;9.326;2023-04-30T05:15:14;11.80;99.90
7844;DHT22;3967;48.702;9.326;2023-04-30T05:17:40;11.80;99.50
7844;DHT22;3967;48.702;9.326;2023-04-30T05:20:08;11.80;99.50
7844;DHT22;3967;48.702;9.326;2023-04-30T05:22:35;11.60;99.80
7844;DHT22;3967;48.702;9.326;2023-04-30T05:25:01;11.80;99.90
7844;DHT22;3967;48.702;9.326;2023-04-30T05:27:28;11.90;99.70
7844;DHT22;3967;48.702;9.326;2023-04-30T05:29:55;12.00;99.50
7844;DHT22;3967;48.702;9.326;2023-04-30T05:32:22;11.70;99.70
7844;DHT22;3967;48.702;9.326;2023-04-30T05:34:55;11.70;99.80
7844;DHT22;3967;48.702;9.326;2023-04-30T05:37:21;11.80;99.90
7844;DHT22;3967;48.702;9.326;2023-04-30T05:39:48;11.70;99.90
7844;DHT22;3967;48.702;9.326;2023-04-30T05:42:15;11.90;99.90
7844;DHT22;3967;48.702;9.326;2023-04-30T05:44:41;12.00;99.90
7844;DHT22;3967;48.702;9.326;2023-04-30T05:47:08;11.90;99.40
7844;DHT22;3967;48.702;9.326;2023-04-30T05:49:35;11.80;99.90
7844;DHT22;3967;48.702;9.326;2023-04-30T05:52:02;11.90;99.90
7844;DHT22;3967;48.702;9.326;2023-04-30T05:54:29;12.00;99.80
7844;DHT22;3967;48.702;9.326;2023-04-30T05:56:56;12.20;99.90
7844;DHT22;3967;48.702;9.326;2023-04-30T05:59:23;12.50;99.20
7844;DHT22;3967;48.702;9.326;2023-04-30T06:01:50;12.30;98.90
7844;DHT22;3967;48.702;9.326;2023-04-30T06:04:17;12.40;99.20
7844;DHT22;3967;48.702;9.326;2023-04-30T06:06:44;12.60;98.20
7844;DHT22;3967;48.702;9.326;2023-04-30T06:09:11;12.50;98.10
7844;DHT22;3967;48.702;9.326;2023-04-30T06:11:37;12.50;97.80
7844;DHT22;3967;48.702;9.326;2023-04-30T06:14:09;12.50;98.10
7844;DHT22;3967;48.702;9.326;2023-04-30T06:16:35;12.60;97.60
7844;DHT22;3967;48.702;9.326;2023-04-30T06:19:02;12.70;97.10
7844;DHT22;3967;48.702;9.326;2023-04-30T06:21:29;12.80;96.50
7844;DHT22;3967;48.702;9.326;2023-04-30T06:23:56;12.70;96.40
7844;DHT22;3967;48.702;9.326;2023-04-30T06:26:22;12.90;97.10
7844;DHT22;3967;48.702;9.326;2023-04-30T06:28:49;13.20;96.70
7844;DHT22;3967;48.702;9.326;2023-04-30T06:31:16;13.40;95.80
7844;DHT22;3967;48.702;9.326;2023-04-30T06:33:43;13.40;95.20
7844;DHT22;3967;48.702;9.326;2023-04-30T06:36:10;13.40;94.80
7844;DHT22;3967;48.702;9.326;2023-04-30T06:38:36;13.30;95.10
7844;DHT22;3967;48.702;9.326;2023-04-30T06:41:03;13.30;95.30
7844;DHT22;3967;48.702;9.326;2023-04-30T06:43:30;13.50;95.20
7844;DHT22;3967;48.702;9.326;2023-04-30T06:45:57;13.60;94.90
7844;DHT22;3967;48.702;9.326;2023-04-30T06:48:23;13.50;94.00
7844;DHT22;3967;48.702;9.326;2023-04-30T06:50:50;13.80;94.40
7844;DHT22;3967;48.702;9.326;2023-04-30T06:53:17;13.90;93.50
7844;DHT22;3967;48.702;9.326;2023-04-30T06:55:44;14.00;94.30
7844;DHT22;3967;48.702;9.326;2023-04-30T06:58:14;14.00;93.60
7844;DHT22;3967;48.702;9.326;2023-04-30T07:00:41;14.30;92.70
7844;DHT22;3967;48.702;9.326;2023-04-30T07:03:08;14.60;92.40
7844;DHT22;3967;48.702;9.326;2023-04-30T07:05:34;14.60;92.20
7844;DHT22;3967;48.702;9.326;2023-04-30T07:08:02;14.30;90.90
7844;DHT22;3967;48.702;9.326;2023-04-30T07:10:29;14.50;91.70
7844;DHT22;3967;48.702;9.326;2023-04-30T07:12:57;14.60;91.10
7844;DHT22;3967;48.702;9.326;2023-04-30T07:15:25;14.40;90.80
7844;DHT22;3967;48.702;9.326;2023-04-30T07:17:51;14.20;90.70
7844;DHT22;3967;48.702;9.326;2023-04-30T07:20:18;14.70;90.80
7844;DHT22;3967;48.702;9.326;2023-04-30T07:22:45;14.70;90.40
7844;DHT22;3967;48.702;9.326;2023-04-30T07:25:12;14.80;90.10
7844;DHT22;3967;48.702;9.326;2023-04-30T07:27:40;14.80;90.20
7844;DHT22;3967;48.702;9.326;2023-04-30T07:30:07;14.80;89.20
7844;DHT22;3967;48.702;9.326;2023-04-30T07:32:37;15.10;89.90
7844;DHT22;3967;48.702;9.326;2023-04-30T07:35:06;15.60;88.10
7844;DHT22;3967;48.702;9.326;2023-04-30T07:37:33;15.80;87.20
7844;DHT22;3967;48.702;9.326;2023-04-30T07:40:01;16.00;87.40
7844;DHT22;3967;48.702;9.326;2023-04-30T07:42:29;15.70;84.80
7844;DHT22;3967;48.702;9.326;2023-04-30T07:44:55;15.80;85.10
7844;DHT22;3967;48.702;9.326;2023-04-30T07:47:22;15.80;85.40
7844;DHT22;3967;48.702;9.326;2023-04-30T07:49:50;16.00;84.50
7844;DHT22;3967;48.702;9.326;2023-04-30T07:52:17;16.00;83.10
7844;DHT22;3967;48.702;9.326;2023-04-30T07:54:44;16.00;82.80
7844;DHT22;3967;48.702;9.326;2023-04-30T07:57:11;15.90;82.80
7844;DHT22;3967;48.702;9.326;2023-04-30T07:59:38;15.90;83.70
7844;DHT22;3967;48.702;9.326;2023-04-30T08:02:05;15.40;83.50
7844;DHT22;3967;48.702;9.326;2023-04-30T08:04:32;15.50;84.10
7844;DHT22;3967;48.702;9.326;2023-04-30T08:06:59;15.60;83.40
7844;DHT22;3967;48.702;9.326;2023-04-30T08:09:27;15.90;83.00
7844;DHT22;3967;48.702;9.326;2023-04-30T08:11:54;15.50;82.80
7844;DHT22;3967;48.702;9.326;2023-04-30T08:14:21;15.90;83.70
7844;DHT22;3967;48.702;9.326;2023-04-30T08:16:48;15.90;83.10
7844;DHT22;3967;48.702;9.326;2023-04-30T08:19:14;16.30;82.00
7844;DHT22;3967;48.702;9.326;2023-04-30T08:21:41;16.20;81.30
7844;DHT22;3967;48.702;9.326;2023-04-30T08:24:08;16.40;81.80
7844;DHT22;3967;48.702;9.326;2023-04-30T08:26:34;16.90;82.10
7844;DHT22;3967;48.702;9.326;2023-04-30T08:29:01;17.20;82.60
7844;DHT22;3967;48.702;9.326;2023-04-30T08:31:28;16.70;79.20
7844;DHT22;3967;48.702;9.326;2023-04-30T08:33:55;16.60;80.10
7844;DHT22;3967;48.702;9.326;2023-04-30T08:36:21;17.10;80.90
7844;DHT22;3967;48.702;9.326;2023-04-30T08:38:48;17.00;77.60
7844;DHT22;3967;48.702;9.326;2023-04-30T08:41:15;17.50;77.20
7844;DHT22;3967;48.702;9.326;2023-04-30T08:43:42;17.50;75.50
7844;DHT22;3967;48.702;9.326;2023-04-30T08:46:13;17.70;76.60
7844;DHT22;3967;48.702;9.326;2023-04-30T08:48:40;17.70;76.00
7844;DHT22;3967;48.702;9.326;2023-04-30T08:51:07;17.60;75.70
7844;DHT22;3967;48.702;9.326;2023-04-30T08:53:35;17.60;73.90
7844;DHT22;3967;48.702;9.326;2023-04-30T08:56:05;17.30;75.30
7844;DHT22;3967;48.702;9.326;2023-04-30T08:58:32;17.30;73.80
7844;DHT22;3967;48.702;9.326;2023-04-30T09:01:00;16.80;72.60
7844;DHT22;3967;48.702;9.326;2023-04-30T09:03:29;16.70;73.60
7844;DHT22;3967;48.702;9.326;2023-04-30T09:05:56;16.70;73.20
7844;DHT22;3967;48.702;9.326;2023-04-30T09:08:40;16.60;74.30
7844;DHT22;3967;48.702;9.326;2023-04-30T09:11:26;16.30;74.50
7844;DHT22;3967;48.702;9.326;2023-04-30T09:13:56;16.00;75.30
7844;DHT22;3967;48.702;9.326;2023-04-30T09:16:28;16.10;75.90
7844;DHT22;3967;48.702;9.326;2023-04-30T09:18:58;16.20;76.30
7844;DHT22;3967;48.702;9.326;2023-04-30T09:21:33;16.10;74.30
7844;DHT22;3967;48.702;9.326;2023-04-30T09:24:04;15.90;74.50
7844;DHT22;3967;48.702;9.326;2023-04-30T09:26:35;16.00;75.30
7844;DHT22;3967;48.702;9.326;2023-04-30T09:29:03;15.90;75.10
7844;DHT22;3967;48.702;9.326;2023-04-30T09:31:35;16.10;75.80
7844;DHT22;3967;48.702;9.326;2023-04-30T09:34:03;16.10;75.60
7844;DHT22;3967;48.702;9.326;2023-04-30T09:36:30;15.90;75.80
7844;DHT22;3967;48.702;9.326;2023-04-30T09:39:09;16.00;75.30
7844;DHT22;3967;48.702;9.326;2023-04-30T09:41:42;16.20;74.80
7844;DHT22;3967;48.702;9.326;2023-04-30T09:44:29;16.20;73.90
7844;DHT22;3967;48.702;9.326;2023-04-30T09:46:56;16.30;74.10
7844;DHT22;3967;48.702;9.326;2023-04-30T09:49:24;16.30;74.30
7844;DHT22;3967;48.702;9.326;2023-04-30T09:51:59;16.20;72.70
7844;DHT22;3967;48.702;9.326;2023-04-30T09:54:30;16.10;73.70
7844;DHT22;3967;48.702;9.326;2023-04-30T09:56:59;16.10;72.20
7844;DHT22;3967;48.702;9.326;2023-04-30T09:59:30;16.10;73.50
7844;DHT22;3967;48.702;9.326;2023-04-30T10:01:58;16.00;72.40
7844;DHT22;3967;48.702;9.326;2023-04-30T10:04:35;15.90;72.00
7844;DHT22;3967;48.702;9.326;2023-04-30T10:07:08;16.10;71.80
7844;DHT22;3967;48.702;9.326;2023-04-30T10:09:51;16.20;72.90
7844;DHT22;3967;48.702;9.326;2023-04-30T10:12:26;16.50;71.40
7844;DHT22;3967;48.702;9.326;2023-04-30T10:15:04;16.90;70.90
7844;DHT22;3967;48.702;9.326;2023-04-30T10:17:34;16.70;69.40
7844;DHT22;3967;48.702;9.326;2023-04-30T10:20:08;16.50;69.80
7844;DHT22;3967;48.702;9.326;2023-04-30T10:22:35;16.50;70.40
7844;DHT22;3967;48.702;9.326;2023-04-30T10:25:02;16.70;69.80
7844;DHT22;3967;48.702;9.326;2023-04-30T10:27:29;16.70;68.30
7844;DHT22;3967;48.702;9.326;2023-04-30T10:29:56;16.60;67.40
7844;DHT22;3967;48.702;9.326;2023-04-30T10:32:31;16.50;67.70
7844;DHT22;3967;48.702;9.326;2023-04-30T10:35:11;16.40;67.00
7844;DHT22;3967;48.702;9.326;2023-04-30T10:37:49;16.30;67.20
7844;DHT22;3967;48.702;9.326;2023-04-30T10:40:18;16.20;67.60
7844;DHT22;3967;48.702;9.326;2023-04-30T10:42:52;16.00;67.40
7844;DHT22;3967;48.702;9.326;2023-04-30T10:45:36;16.10;68.60
7844;DHT22;3967;48.702;9.326;2023-04-30T10:48:04;16.20;67.70
7844;DHT22;3967;48.702;9.326;2023-04-30T10:50:32;16.50;68.00
7844;DHT22;3967;48.702;9.326;2023-04-30T10:53:03;16.40;67.60
7844;DHT22;3967;48.702;9.326;2023-04-30T10:55:31;16.60;68.20
7844;DHT22;3967;48.702;9.326;2023-04-30T10:57:58;16.30;67.10
7844;DHT22;3967;48.702;9.326;2023-04-30T11:00:27;16.60;68.30
7844;DHT22;3967;48.702;9.326;2023-04-30T11:03:01;16.70;67.40
7844;DHT22;3967;48.702;9.326;2023-04-30T11:05:36;16.40;67.50
7844;DHT22;3967;48.702;9.326;2023-04-30T11:08:08;16.30;66.90
7844;DHT22;3967;48.702;9.326;2023-04-30T11:10:36;16.30;66.90
7844;DHT22;3967;48.702;9.326;2023-04-30T11:13:05;16.40;67.40
7844;DHT22;3967;48.702;9.326;2023-04-30T11:15:44;16.60;68.30
7844;DHT22;3967;48.702;9.326;2023-04-30T11:18:12;16.40;66.90
7844;DHT22;3967;48.702;9.326;2023-04-30T11:20:40;16.50;66.70
7844;DHT22;3967;48.702;9.326;2023-04-30T11:23:14;16.70;66.30
7844;DHT22;3967;48.702;9.326;2023-04-30T11:25:54;16.70;66.30
7844;DHT22;3967;48.702;9.326;2023-04-30T11:28:25;16.90;66.10
7844;DHT22;3967;48.702;9.326;2023-04-30T11:30:57;16.70;65.30
7844;DHT22;3967;48.702;9.326;2023-04-30T11:33:26;16.60;65.50
7844;DHT22;3967;48.702;9.326;2023-04-30T11:35:54;16.80;65.70
7844;DHT22;3967;48.702;9.326;2023-04-30T11:40:53;17.00;67.10
7844;DHT22;3967;48.702;9.326;2023-04-30T11:43:24;17.20;66.70
7844;DHT22;3967;48.702;9.326;2023-04-30T11:46:12;17.30;66.50
7844;DHT22;3967;48.702;9.326;2023-04-30T11:48:48;17.10;66.20
7844;DHT22;3967;48.702;9.326;2023-04-30T11:51:22;16.90;66.40
7844;DHT22;3967;48.702;9.326;2023-04-30T11:53:51;16.80;64.70
7844;DHT22;3967;48.702;9.326;2023-04-30T11:58:47;16.70;64.50
7844;DHT22;3967;48.702;9.326;2023-04-30T12:01:15;17.00;65.80
7844;DHT22;3967;48.702;9.326;2023-04-30T12:03:48;16.80;65.90
7844;DHT22;3967;48.702;9.326;2023-04-30T12:06:26;17.10;66.60
7844;DHT22;3967;48.702;9.326;2023-04-30T12:09:01;17.10;65.60
7844;DHT22;3967;48.702;9.326;2023-04-30T12:11:30;17.00;65.50
7844;DHT22;3967;48.702;9.326;2023-04-30T12:16:49;17.10;64.80
7844;DHT22;3967;48.702;9.326;2023-04-30T12:19:17;17.10;66.60
7844;DHT22;3967;48.702;9.326;2023-04-30T12:21:45;17.10;66.20
7844;DHT22;3967;48.702;9.326;2023-04-30T12:24:14;17.10;64.70
7844;DHT22;3967;48.702;9.326;2023-04-30T12:26:42;17.10;66.00
7844;DHT22;3967;48.702;9.326;2023-04-30T12:29:18;17.30;66.90
7844;DHT22;3967;48.702;9.326;2023-04-30T12:31:48;17.40;66.70
7844;DHT22;3967;48.702;9.326;2023-04-30T12:34:16;17.20;66.20
7844;DHT22;3967;48.702;9.326;2023-04-30T12:36:44;17.40;65.90
7844;DHT22;3967;48.702;9.326;2023-04-30T12:39:13;17.30;65.10
7844;DHT22;3967;48.702;9.326;2023-04-30T12:41:47;17.10;65.80
7844;DHT22;3967;48.702;9.326;2023-04-30T12:44:22;17.30;65.90
7844;DHT22;3967;48.702;9.326;2023-04-30T12:46:51;17.30;65.80
7844;DHT22;3967;48.702;9.326;2023-04-30T12:49:26;17.40;66.70
7844;DHT22;3967;48.702;9.326;2023-04-30T12:54:33;17.60;68.30
7844;DHT22;3967;48.702;9.326;2023-04-30T12:57:02;17.70;63.70
7844;DHT22;3967;48.702;9.326;2023-04-30T12:59:30;17.80;64.90
7844;DHT22;3967;48.702;9.326;2023-04-30T13:02:09;17.80;64.00
7844;DHT22;3967;48.702;9.326;2023-04-30T13:04:37;17.80;64.50
7844;DHT22;3967;48.702;9.326;2023-04-30T13:07:04;17.80;65.40
7844;DHT22;3967;48.702;9.326;2023-04-30T13:09:35;17.60;65.20
7844;DHT22;3967;48.702;9.326;2023-04-30T13:12:03;17.50;63.90
7844;DHT22;3967;48.702;9.326;2023-04-30T13:14:30;17.40;64.50
7844;DHT22;3967;48.702;9.326;2023-04-30T13:16:57;17.60;65.80
7844;DHT22;3967;48.702;9.326;2023-04-30T13:19:24;17.80;65.20
7844;DHT22;3967;48.702;9.326;2023-04-30T13:21:52;17.30;64.90
7844;DHT22;3967;48.702;9.326;2023-04-30T13:24:18;17.50;65.50
7844;DHT22;3967;48.702;9.326;2023-04-30T13:26:45;17.50;65.70
7844;DHT22;3967;48.702;9.326;2023-04-30T13:29:13;17.70;63.90
7844;DHT22;3967;48.702;9.326;2023-04-30T13:31:39;17.90;63.80
7844;DHT22;3967;48.702;9.326;2023-04-30T13:34:08;17.80;64.10
7844;DHT22;3967;48.702;9.326;2023-04-30T13:36:35;17.70;64.00
7844;DHT22;3967;48.702;9.326;2023-04-30T13:39:02;17.60;65.40
7844;DHT22;3967;48.702;9.326;2023-04-30T13:41:30;17.60;63.00
7844;DHT22;3967;48.702;9.326;2023-04-30T13:43:57;17.50;62.60
7844;DHT22;3967;48.702;9.326;2023-04-30T13:46:25;17.70;63.60
7844;DHT22;3967;48.702;9.326;2023-04-30T13:48:52;17.70;62.70
7844;DHT22;3967;48.702;9.326;2023-04-30T13:51:19;17.80;61.70
7844;DHT22;3967;48.702;9.326;2023-04-30T13:53:46;17.80;61.10
7844;DHT22;3967;48.702;9.326;2023-04-30T13:56:13;18.00;61.80
7844;DHT22;3967;48.702;9.326;2023-04-30T13:58:41;18.10;62.20
7844;DHT22;3967;48.702;9.326;2023-04-30T14:01:07;17.90;62.10
7844;DHT22;3967;48.702;9.326;2023-04-30T14:03:36;18.00;63.30
7844;DHT22;3967;48.702;9.326;2023-04-30T14:06:03;18.10;63.20
7844;DHT22;3967;48.702;9.326;2023-04-30T14:08:31;18.10;62.30
7844;DHT22;3967;48.702;9.326;2023-04-30T14:10:59;18.10;63.00
7844;DHT22;3967;48.702;9.326;2023-04-30T14:13:26;18.10;62.30
7844;DHT22;3967;48.702;9.326;2023-04-30T14:15:53;17.90;62.20
7844;DHT22;3967;48.702;9.326;2023-04-30T14:18:21;17.80;62.40
7844;DHT22;3967;48.702;9.326;2023-04-30T14:20:48;17.70;61.90
7844;DHT22;3967;48.702;9.326;2023-04-30T14:23:15;17.40;61.80
7844;DHT22;3967;48.702;9.326;2023-04-30T14:25:42;17.70;61.70
7844;DHT22;3967;48.702;9.326;2023-04-30T14:28:10;17.90;61.10
7844;DHT22;3967;48.702;9.326;2023-04-30T14:30:37;18.00;61.00
7844;DHT22;3967;48.702;9.326;2023-04-30T14:33:04;18.10;61.10
7844;DHT22;3967;48.702;9.326;2023-04-30T14:35:32;18.20;61.00
7844;DHT22;3967;48.702;9.326;2023-04-30T14:37:59;18.00;61.30
7844;DHT22;3967;48.702;9.326;2023-04-30T14:40:25;18.00;61.80
7844;DHT22;3967;48.702;9.326;2023-04-30T14:42:52;17.70;61.50
7844;DHT22;3967;48.702;9.326;2023-04-30T14:45:19;17.90;62.60
7844;DHT22;3967;48.702;9.326;2023-04-30T14:47:46;17.80;63.20
7844;DHT22;3967;48.702;9.326;2023-04-30T14:50:13;17.90;62.00
7844;DHT22;3967;48.702;9.326;2023-04-30T14:52:39;17.80;62.50
7844;DHT22;3967;48.702;9.326;2023-04-30T14:55:07;17.70;61.90
7844;DHT22;3967;48.702;9.326;2023-04-30T14:57:34;17.90;62.50
7844;DHT22;3967;48.702;9.326;2023-04-30T15:00:01;17.80;61.50
7844;DHT22;3967;48.702;9.326;2023-04-30T15:02:29;18.10;62.90
7844;DHT22;3967;48.702;9.326;2023-04-30T15:04:56;18.20;62.90
7844;DHT22;3967;48.702;9.326;2023-04-30T15:07:23;18.30;63.00
7844;DHT22;3967;48.702;9.326;2023-04-30T15:09:49;18.10;61.70
7844;DHT22;3967;48.702;9.326;2023-04-30T15:12:18;17.70;61.70
7844;DHT22;3967;48.702;9.326;2023-04-30T15:14:45;17.70;62.50
7844;DHT22;3967;48.702;9.326;2023-04-30T15:17:12;17.80;62.30
7844;DHT22;3967;48.702;9.326;2023-04-30T15:19:39;17.80;63.00
7844;DHT22;3967;48.702;9.326;2023-04-30T15:22:06;17.70;62.60
7844;DHT22;3967;48.702;9.326;2023-04-30T15:24:33;17.80;62.70
7844;DHT22;3967;48.702;9.326;2023-04-30T15:27:00;17.60;61.90
7844;DHT22;3967;48.702;9.326;2023-04-30T15:29:27;17.80;62.70
7844;DHT22;3967;48.702;9.326;2023-04-30T15:31:54;17.50;62.20
7844;DHT22;3967;48.702;9.326;2023-04-30T15:34:21;17.50;61.70
7844;DHT22;3967;48.702;9.326;2023-04-30T15:36:48;17.50;61.50
7844;DHT22;3967;48.702;9.326;2023-04-30T15:39:15;17.30;61.30
7844;DHT22;3967;48.702;9.326;2023-04-30T15:41:41;17.40;60.90
7844;DHT22;3967;48.702;9.326;2023-04-30T15:44:10;17.60;61.30
7844;DHT22;3967;48.702;9.326;2023-04-30T15:46:36;17.50;61.00
7844;DHT22;3967;48.702;9.326;2023-04-30T15:49:03;17.70;61.60
7844;DHT22;3967;48.702;9.326;2023-04-30T15:51:30;17.80;60.90
7844;DHT22;3967;48.702;9.326;2023-04-30T15:53:56;17.80;61.60
7844;DHT22;3967;48.702;9.326;2023-04-30T15:56:23;17.80;61.30
7844;DHT22;3967;48.702;9.326;2023-04-30T15:58:52;18.00;61.70
7844;DHT22;3967;48.702;9.326;2023-04-30T16:01:19;17.90;61.90
7844;DHT22;3967;48.702;9.326;2023-04-30T16:03:46;17.80;62.20
7844;DHT22;3967;48.702;9.326;2023-04-30T16:06:14;17.60;63.70
7844;DHT22;3967;48.702;9.326;2023-04-30T16:08:42;17.60;62.40
7844;DHT22;3967;48.702;9.326;2023-04-30T16:11:09;17.40;61.80
7844;DHT22;3967;48.702;9.326;2023-04-30T16:13:37;17.70;62.70
7844;DHT22;3967;48.702;9.326;2023-04-30T16:16:04;17.80;61.80
7844;DHT22;3967;48.702;9.326;2023-04-30T16:18:33;17.80;62.10
7844;DHT22;3967;48.702;9.326;2023-04-30T16:21:00;17.70;62.10
7844;DHT22;3967;48.702;9.326;2023-04-30T16:23:27;17.60;61.70
7844;DHT22;3967;48.702;9.326;2023-04-30T16:25:56;17.60;62.70
7844;DHT22;3967;48.702;9.326;2023-04-30T16:28:23;17.60;62.50
7844;DHT22;3967;48.702;9.326;2023-04-30T16:30:54;17.40;62.80
7844;DHT22;3967;48.702;9.326;2023-04-30T16:33:21;17.30;63.00
7844;DHT22;3967;48.702;9.326;2023-04-30T16:35:48;17.30;63.10